Bozeman, MT

9:14 PM MDT on August 28, 2014 (GMT -0600)
Mission | Change Station
CLOSE
Current Station
Airport
Location: Livingston,
Elevation: 4656 ft
Nearby Weather Stations

Elev 4656 ft 45.70 °N, 110.44 °W | Updated 21 minutes ago

Mostly Cloudy
Mostly Cloudy
75 °F
Feels Like 75 °F
N
10
Wind Variable Wind from SW

Today
High -- | Low -- °F
--% Chance of Precip.
Yesterday
High -- | Low -- °F
Precip. -- in
6:40 AM 8:09 PM
Waxing Crescent, 11% visible
Pressure 29.83 in
Visibility 10.0 miles
Clouds Mostly Cloudy 11000 ft
Dew Point 45 °F
Humidity 34%
Rainfall 0.00 in
Snow Depth 0 in
UV 0 out of 12
Pollen 7.60 out of 12
Air Quality Not available.
Flu Activity Not available.
METAR KLVM 290253Z AUTO 22009KT 10SM VCTS BKN110 24/07 A2998 RMK AO2 SLP099 T02390072 53005

More Conditions Fewer Conditions

Pressure 29.83 in
Visibility 10.0 miles
Clouds Mostly Cloudy 11000 ft
Dew Point 45 °F
Humidity 34%
Rainfall 0.00 in
Snow Depth 0 in
UV 0 out of 12
Pollen 7.60 out of 12
Air Quality Not available.
Flu Activity Not available.
METAR KLVM 290253Z AUTO 22009KT 10SM VCTS BKN110 24/07 A2998 RMK AO2 SLP099 T02390072 53005

More Conditions Fewer Conditions

Nowcast | as of 8:03 PM MDT on August 28, 2014

At 759 PM MDT...National Weather Service Doppler radar indicated a thunderstorm 8 miles south of Virginia City...moving east at 40 mph. This also includes Highway 191 between mile markers 31 and 46. This also includes Highway 287 between mile markers 28 and 41. Small hail...wind gusts to 40 mph...brief heavy rainfall and isolated lightning strikes can be expected from this storm. If you are caught outside...seek shelter from the weather in a sturdy building. Stay inside away from windows until the storm has passed.

×

10-Day Weather Forecast

Almanac

Astronomy

Aug. 28, 2014 Rise Set
Actual Time 6:40 AM MDT 8:09 PM MDT
Civil Twilight 6:09 AM MDT 8:40 PM MDT
Nautical Twilight 5:31 AM MDT 9:17 PM MDT
Astronomical Twilight 4:51 AM MDT 9:57 PM MDT
Moon 9:47 AM MDT (8/28) 9:23 PM MDT (8/28)
Length of Visible Light 14h 30m
Length of Day
13h 28m
Tomorrow will be 3m 4s shorter.
Waxing Crescent, 11% of the Moon is Illuminated
Today
Waxing Crescent
Sep 2
First Quarter
Sep 8
Full
Sep 15
Last Quarter
Sep 24
New

Today's Extremes

State Highs State Lows

Community

WunderPhotos

Upload Photos

1,748,146 photos uploaded!

Nearby

Snow Depth

Station Depth Elevation
Shower Falls 0 in 8100 ft
Lone Mountain 1 in 8880 ft
Porcupine 0 in 6500 ft
Brackett Creek 1 in 7320 ft
Carrot Basin 0 in 9000 ft

Earthquake Activity

City Distance Mag. Time & Date
No recent earthquake activity has been reported nearby.
Minimum magnitude displayed is 2.5.

Coastal Water Temperatures

Place Temperature
No Stations Reporting

Nearby Weather Stations